KLRU/LRU METAR and TAF weather

Enter ICAO airport designator
Station Type Date Time Source
KLRU METAR 2019/04/24 15:55 UTC NOAA

KLRU 241555Z AUTO 33004KT 10SM CLR 16/07 A3006 RMK AO2 T01560072


Station Type Date Time Source
KLRU Decoded METAR 2019/04/24 15:55 UTC NOAA

Las Cruces, Las Cruces International Airport, NM, United States (KLRU) 32-17-22N 106-55-19W
Apr 24, 2019 - 11:55 AM EDT / 2019.04.24 1555 UTC
Wind: from the NNW (330 degrees) at 5 MPH (4 KT):0
Visibility: 10 mile(s):0
Sky conditions: clear
Temperature: 60.1 F (15.6 C)
Dew Point: 45.0 F (7.2 C)
Relative Humidity: 57%
Pressure (altimeter): 30.06 in. Hg (1017 hPa)
ob: KLRU 241555Z AUTO 33004KT 10SM CLR 16/07 A3006 RMK AO2 T01560072
cycle: 16

Station Type Date Time Source
KLRU TAF 2019/04/24 12:40 UTC NOAA

TAF KLRU 241138Z 2412/2512 VRB05KT P6SM SCT100
FM241800 29008G18KT P6SM FEW100
FM250300 27008KT P6SM SKC

Example: see airport list